createdAt,value
2019-03-23T00:02:06.778Z,27.45
2019-03-23T00:04:13.519Z,27.00
2019-03-23T00:06:30.248Z,26.90
2019-03-23T00:08:28.983Z,25.62
2019-03-23T00:10:35.727Z,26.52
2019-03-23T00:12:42.393Z,26.75
2019-03-23T00:14:49.160Z,27.17
2019-03-23T00:16:55.924Z,26.15
2019-03-23T00:19:02.685Z,25.02
2019-03-23T00:21:09.385Z,18.77
2019-03-23T00:23:16.053Z,18.73
2019-03-23T00:25:22.731Z,24.37
2019-03-23T00:27:29.435Z,15.95
2019-03-23T00:29:36.168Z,21.75
2019-03-23T00:31:42.822Z,19.62
2019-03-23T00:33:49.618Z,21.60
2019-03-23T00:35:56.303Z,21.33
2019-03-23T00:38:03.043Z,14.38
2019-03-23T00:40:11.748Z,20.85
2019-03-23T00:42:18.521Z,20.97
2019-03-23T00:44:25.297Z,22.90
2019-03-23T00:46:32.005Z,17.95
2019-03-23T00:48:38.678Z,19.75
2019-03-23T00:50:46.356Z,29.55
2019-03-23T00:52:53.223Z,21.85
2019-03-23T00:54:59.894Z,25.65
2019-03-23T00:57:06.556Z,30.30
2019-03-23T00:59:13.349Z,29.00
2019-03-23T01:01:20.923Z,28.73
2019-03-23T01:03:27.595Z,28.38
2019-03-23T01:05:34.286Z,34.25
2019-03-23T01:07:41.042Z,27.42
2019-03-23T01:09:47.707Z,34.85
2019-03-23T01:11:54.430Z,25.77
2019-03-23T01:14:01.114Z,23.05
2019-03-23T01:16:07.972Z,25.57
2019-03-23T01:18:14.678Z,22.48
2019-03-23T01:20:21.333Z,22.07
2019-03-23T01:22:28.010Z,24.57
2019-03-23T01:24:34.698Z,29.00
2019-03-23T01:26:41.365Z,29.48
2019-03-23T01:28:48.140Z,29.57
2019-03-23T01:30:54.838Z,29.30
2019-03-23T01:33:01.523Z,27.90
2019-03-23T01:35:09.580Z,28.87
2019-03-23T01:37:16.266Z,28.75
2019-03-23T01:39:22.933Z,29.70
2019-03-23T01:41:29.679Z,29.52
2019-03-23T01:43:36.421Z,27.52
2019-03-23T01:45:43.191Z,28.87
2019-03-23T01:47:49.864Z,31.57
2019-03-23T01:49:56.553Z,30.68
2019-03-23T01:52:03.238Z,30.92
2019-03-23T01:54:09.993Z,31.17
2019-03-23T01:56:16.665Z,32.10
2019-03-23T01:58:23.338Z,33.73
2019-03-23T02:00:31.007Z,31.80
2019-03-23T02:02:37.779Z,31.73
2019-03-23T02:04:44.449Z,30.25
2019-03-23T02:06:51.127Z,30.27
2019-03-23T02:08:57.819Z,27.60
2019-03-23T02:11:05.675Z,24.02
2019-03-23T02:13:12.357Z,24.25
2019-03-23T02:15:19.328Z,21.23
2019-03-23T02:17:26.000Z,23.30
2019-03-23T02:19:32.682Z,25.57
2019-03-23T02:21:39.524Z,26.87
2019-03-23T02:23:46.182Z,25.97
2019-03-23T02:25:52.921Z,24.45
2019-03-23T02:27:59.893Z,24.67
2019-03-23T02:30:11.089Z,22.80
2019-03-23T02:32:17.812Z,23.07
2019-03-23T02:34:24.515Z,22.50
2019-03-23T02:36:31.190Z,21.10
2019-03-23T02:38:37.874Z,20.23
2019-03-23T02:40:44.756Z,22.77
2019-03-23T02:42:51.429Z,22.10
2019-03-23T02:44:58.119Z,23.05
2019-03-23T02:47:04.883Z,24.07
2019-03-23T02:49:11.546Z,22.20
2019-03-23T02:51:18.224Z,21.93
2019-03-23T02:53:24.930Z,21.42
2019-03-23T02:55:31.683Z,21.30
2019-03-23T02:57:38.370Z,20.02
2019-03-23T02:59:45.092Z,19.70
2019-03-23T03:01:51.828Z,18.67
2019-03-23T03:03:58.507Z,20.17
2019-03-23T03:06:05.277Z,19.30
2019-03-23T03:08:11.951Z,18.85
2019-03-23T03:10:38.588Z,18.52
2019-03-23T03:12:45.325Z,17.42
2019-03-23T03:14:53.006Z,17.75
2019-03-23T03:16:59.678Z,16.27
2019-03-23T03:19:06.389Z,17.75
2019-03-23T03:21:13.065Z,14.07
2019-03-23T03:23:19.750Z,15.50
2019-03-23T03:25:26.648Z,13.40
2019-03-23T03:27:33.337Z,11.50
2019-03-23T03:29:40.011Z,13.25
2019-03-23T03:31:46.710Z,12.95
2019-03-23T03:33:53.482Z,11.60
2019-03-23T03:36:03.227Z,11.90
2019-03-23T03:38:09.913Z,13.45
2019-03-23T03:40:16.803Z,13.22
2019-03-23T03:42:23.572Z,12.60
2019-03-23T03:44:30.349Z,13.03
2019-03-23T03:46:37.093Z,12.75
2019-03-23T03:48:43.768Z,13.05
2019-03-23T03:50:50.542Z,14.35
2019-03-23T03:52:57.228Z,12.98
2019-03-23T03:55:04.698Z,12.73
2019-03-23T03:57:12.404Z,13.35
2019-03-23T03:59:19.168Z,14.80
2019-03-23T04:01:25.844Z,14.38
2019-03-23T04:03:32.541Z,13.08
2019-03-23T04:05:39.211Z,12.73
2019-03-23T04:07:47.597Z,12.95
2019-03-23T04:09:54.408Z,13.70
2019-03-23T04:12:01.279Z,12.63
2019-03-23T04:14:09.426Z,12.50
2019-03-23T04:16:16.127Z,11.83
2019-03-23T04:18:23.226Z,11.93
2019-03-23T04:20:29.903Z,11.05
2019-03-23T04:22:36.668Z,12.00
2019-03-23T04:24:43.422Z,12.13
2019-03-23T04:26:50.091Z,13.43
2019-03-23T04:28:56.810Z,11.55
2019-03-23T04:31:03.507Z,11.12
2019-03-23T04:33:10.266Z,9.88
2019-03-23T04:35:16.964Z,11.48
2019-03-23T04:37:23.714Z,10.10
2019-03-23T04:39:30.393Z,11.22
2019-03-23T04:41:37.169Z,11.22
2019-03-23T04:43:44.983Z,11.05
2019-03-23T04:45:51.650Z,11.30
2019-03-23T04:47:58.416Z,12.20
2019-03-23T04:50:09.343Z,11.08
2019-03-23T04:52:16.016Z,10.68
2019-03-23T04:54:22.715Z,10.13
2019-03-23T04:56:29.382Z,10.23
2019-03-23T04:58:36.135Z,11.00
2019-03-23T05:00:42.827Z,11.90
2019-03-23T05:02:49.498Z,11.45
2019-03-23T05:04:56.220Z,13.08
2019-03-23T05:07:02.939Z,11.25
2019-03-23T05:09:10.604Z,12.15
2019-03-23T05:11:17.278Z,12.78
2019-03-23T05:13:23.975Z,12.73
2019-03-23T05:15:30.712Z,13.40
2019-03-23T05:17:37.888Z,12.20
2019-03-23T05:19:44.569Z,11.40
2019-03-23T05:21:51.313Z,10.95
2019-03-23T05:23:57.982Z,11.88
2019-03-23T05:26:04.669Z,10.68
2019-03-23T05:28:11.355Z,9.88
2019-03-23T05:30:18.020Z,11.28
2019-03-23T05:32:24.793Z,13.13
2019-03-23T05:34:31.473Z,11.70
2019-03-23T05:36:38.328Z,12.07
2019-03-23T05:38:45.103Z,12.55
2019-03-23T05:40:51.790Z,13.80
2019-03-23T05:42:58.465Z,12.03
2019-03-23T05:45:06.665Z,14.83
2019-03-23T05:47:13.341Z,15.33
2019-03-23T05:49:20.024Z,13.83
2019-03-23T05:51:26.732Z,17.07
2019-03-23T05:53:33.406Z,15.28
2019-03-23T05:55:40.094Z,14.25
2019-03-23T05:57:46.777Z,12.10
2019-03-23T05:59:53.452Z,13.30
2019-03-23T06:02:00.238Z,11.08
2019-03-23T06:04:06.923Z,11.40
2019-03-23T06:06:13.668Z,11.55
2019-03-23T06:08:20.412Z,11.80
2019-03-23T06:10:27.123Z,10.53
2019-03-23T06:12:33.801Z,11.85
2019-03-23T06:14:40.472Z,10.65
2019-03-23T06:16:47.212Z,12.70
2019-03-23T06:18:53.879Z,10.68
2019-03-23T06:21:00.564Z,9.90
2019-03-23T06:23:07.255Z,10.43
2019-03-23T06:25:14.015Z,10.75
2019-03-23T06:27:20.685Z,10.20
2019-03-23T06:29:27.446Z,9.80
2019-03-23T06:31:34.185Z,9.03
2019-03-23T06:33:40.853Z,9.90
2019-03-23T06:35:47.552Z,9.10
2019-03-23T06:37:54.221Z,9.25
2019-03-23T06:40:00.890Z,9.03
2019-03-23T06:42:07.571Z,8.28
2019-03-23T06:44:14.300Z,8.83
2019-03-23T06:46:21.734Z,9.38
2019-03-23T06:48:28.411Z,9.13
2019-03-23T06:50:35.078Z,8.25
2019-03-23T06:52:41.743Z,8.58
2019-03-23T06:54:48.443Z,10.15
2019-03-23T06:56:55.105Z,8.28
2019-03-23T06:59:01.793Z,8.90
2019-03-23T07:01:08.472Z,8.25
2019-03-23T07:03:15.217Z,7.58
2019-03-23T07:05:21.899Z,7.50
2019-03-23T07:07:28.591Z,7.17
2019-03-23T07:09:35.327Z,7.65
2019-03-23T07:11:42.007Z,7.72
2019-03-23T07:13:48.690Z,8.33
2019-03-23T07:15:55.352Z,6.85
2019-03-23T07:18:02.096Z,7.17
2019-03-23T07:20:14.502Z,7.15
2019-03-23T07:22:21.168Z,6.67
2019-03-23T07:24:27.854Z,7.40
2019-03-23T07:26:34.591Z,6.50
2019-03-23T07:28:41.263Z,6.45
2019-03-23T07:30:47.932Z,6.78
2019-03-23T07:32:54.625Z,6.10
2019-03-23T07:35:01.296Z,6.20
2019-03-23T07:37:09.132Z,5.78
2019-03-23T07:39:26.533Z,6.62
2019-03-23T07:41:24.284Z,6.70
2019-03-23T07:43:30.975Z,6.00
2019-03-23T07:45:37.652Z,7.05
2019-03-23T07:47:44.427Z,6.72
2019-03-23T07:49:51.180Z,7.08
2019-03-23T07:51:58.873Z,6.97
2019-03-23T07:54:05.605Z,6.78
2019-03-23T07:56:12.275Z,6.75
2019-03-23T07:58:19.033Z,7.75
2019-03-23T08:00:25.692Z,8.08
2019-03-23T08:02:32.359Z,8.00
2019-03-23T08:04:39.052Z,8.75
2019-03-23T08:06:45.723Z,6.45
2019-03-23T08:08:52.472Z,6.90
2019-03-23T08:10:59.230Z,6.83
2019-03-23T08:13:06.106Z,7.45
2019-03-23T08:15:12.786Z,7.70
2019-03-23T08:17:19.550Z,7.12
2019-03-23T08:19:26.290Z,6.72
2019-03-23T08:23:48.267Z,7.20
2019-03-23T08:25:54.924Z,6.85
2019-03-23T08:28:01.610Z,7.53
2019-03-23T08:30:08.504Z,6.55
2019-03-23T08:32:15.244Z,7.17
2019-03-23T08:34:21.980Z,7.10
2019-03-23T08:36:28.756Z,6.53
2019-03-23T08:38:35.430Z,6.72
2019-03-23T08:40:42.183Z,5.92
2019-03-23T08:42:48.881Z,5.60
2019-03-23T08:44:55.548Z,8.18
2019-03-23T08:47:02.216Z,5.30
2019-03-23T08:49:08.999Z,5.35
2019-03-23T08:51:15.677Z,4.85
2019-03-23T08:53:22.335Z,4.92
2019-03-23T08:55:29.054Z,5.10
2019-03-23T08:57:35.758Z,4.72
2019-03-23T08:59:42.424Z,4.25
2019-03-23T09:01:49.122Z,3.90
2019-03-23T09:03:55.800Z,3.90
2019-03-23T09:06:02.473Z,4.65
2019-03-23T09:08:09.179Z,3.92
2019-03-23T09:10:15.849Z,3.77
2019-03-23T09:12:22.513Z,3.85
2019-03-23T09:14:29.216Z,4.05
2019-03-23T09:16:35.877Z,4.00
2019-03-23T09:18:42.541Z,3.62
2019-03-23T09:20:49.253Z,3.83
2019-03-23T09:22:55.897Z,3.70
2019-03-23T09:25:02.644Z,4.50
2019-03-23T09:27:09.343Z,3.92
2019-03-23T09:29:16.012Z,4.22
2019-03-23T09:31:22.679Z,4.40
2019-03-23T09:33:29.361Z,4.05
2019-03-23T09:35:39.368Z,3.83
2019-03-23T09:37:44.418Z,3.80
2019-03-23T09:39:51.212Z,4.10
2019-03-23T09:41:57.860Z,4.62
2019-03-23T09:44:04.564Z,4.35
2019-03-23T09:46:11.302Z,4.50
2019-03-23T09:48:17.979Z,3.85
2019-03-23T09:50:24.672Z,4.22
2019-03-23T09:52:31.423Z,4.15
2019-03-23T09:54:38.189Z,3.77
2019-03-23T09:56:44.856Z,3.35
2019-03-23T09:58:51.554Z,4.40
2019-03-23T10:00:58.213Z,3.87
2019-03-23T10:03:04.949Z,4.08
2019-03-23T10:05:11.631Z,3.70
2019-03-23T10:07:18.294Z,4.33
2019-03-23T10:09:24.969Z,6.55
2019-03-23T10:11:31.750Z,3.90
2019-03-23T10:13:38.414Z,4.50
2019-03-23T10:15:45.082Z,4.40
2019-03-23T10:17:51.800Z,4.40
2019-03-23T10:19:58.458Z,4.80
2019-03-23T10:22:05.118Z,4.25
2019-03-23T10:24:11.826Z,4.40
2019-03-23T10:26:18.495Z,4.28
2019-03-23T10:28:25.159Z,4.20
2019-03-23T10:30:31.858Z,4.08
2019-03-23T10:32:38.526Z,4.28
2019-03-23T10:34:45.191Z,4.25
2019-03-23T10:36:52.003Z,3.58
2019-03-23T10:38:58.738Z,3.72
2019-03-23T10:41:05.411Z,4.50
2019-03-23T10:43:12.177Z,4.50
2019-03-23T10:45:20.015Z,3.90
2019-03-23T10:47:26.721Z,3.55
2019-03-23T10:49:33.483Z,3.95
2019-03-23T10:51:40.187Z,3.50
2019-03-23T10:53:46.851Z,3.22
2019-03-23T10:55:53.540Z,3.15
2019-03-23T10:58:00.222Z,3.30
2019-03-23T11:00:11.691Z,3.52
2019-03-23T11:02:18.388Z,3.87
2019-03-23T11:04:25.064Z,2.90
2019-03-23T11:06:32.012Z,3.20
2019-03-23T11:08:38.703Z,3.00
2019-03-23T11:10:45.516Z,3.05
2019-03-23T11:12:52.172Z,3.33
2019-03-23T11:14:58.868Z,2.87
2019-03-23T11:17:05.532Z,3.37
2019-03-23T11:19:13.633Z,3.00
2019-03-23T11:21:20.665Z,4.12
2019-03-23T11:23:27.408Z,3.42
2019-03-23T11:25:34.066Z,3.35
2019-03-23T11:27:40.760Z,3.08
2019-03-23T11:29:47.506Z,3.55
2019-03-23T11:31:54.167Z,3.27
2019-03-23T11:34:00.849Z,3.60
2019-03-23T11:36:07.556Z,3.35
2019-03-23T11:38:14.220Z,3.47
2019-03-23T11:40:20.940Z,3.90
2019-03-23T11:42:27.677Z,3.85
2019-03-23T11:44:34.462Z,3.35
2019-03-23T11:46:41.210Z,4.12
2019-03-23T11:48:47.885Z,3.65
2019-03-23T11:50:54.594Z,4.10
2019-03-23T11:53:01.346Z,3.77
2019-03-23T11:55:09.883Z,3.37
2019-03-23T11:57:16.549Z,3.62
2019-03-23T11:59:23.242Z,3.83
2019-03-23T12:01:29.984Z,4.42
2019-03-23T12:03:36.640Z,3.70
2019-03-23T12:05:43.338Z,3.75
2019-03-23T12:07:50.003Z,4.35
2019-03-23T12:09:56.750Z,3.58
2019-03-23T12:12:03.625Z,3.55
2019-03-23T12:14:10.284Z,3.33
2019-03-23T12:16:16.941Z,3.30
2019-03-23T12:18:23.635Z,3.02
2019-03-23T12:20:30.294Z,2.95
2019-03-23T12:22:37.078Z,3.12
2019-03-23T12:24:43.835Z,3.20
2019-03-23T12:26:50.552Z,3.45
2019-03-23T12:28:57.210Z,3.00
2019-03-23T12:31:04.033Z,3.05
2019-03-23T12:33:10.698Z,2.80
2019-03-23T12:35:17.364Z,2.92
2019-03-23T12:37:24.164Z,2.95
2019-03-23T12:39:30.896Z,2.80
2019-03-23T12:41:37.559Z,3.17
2019-03-23T12:43:44.233Z,2.95
2019-03-23T12:45:51.905Z,2.90
2019-03-23T12:47:58.565Z,3.35
2019-03-23T12:50:08.221Z,3.20
2019-03-23T12:52:16.412Z,3.27
2019-03-23T12:54:23.082Z,3.55
2019-03-23T12:56:29.779Z,3.05
2019-03-23T12:58:36.645Z,3.10
2019-03-23T13:00:43.321Z,2.95
2019-03-23T13:02:50.056Z,3.05
2019-03-23T13:04:56.750Z,3.08
2019-03-23T13:07:03.427Z,3.40
2019-03-23T13:09:10.123Z,3.45
2019-03-23T13:11:23.373Z,3.50
2019-03-23T13:13:25.297Z,3.75
2019-03-23T13:15:32.215Z,3.35
2019-03-23T13:17:38.970Z,3.45
2019-03-23T13:19:45.630Z,3.17
2019-03-23T13:21:52.397Z,2.85
2019-03-23T13:23:59.058Z,2.65
2019-03-23T13:26:05.816Z,2.80
2019-03-23T13:28:12.495Z,2.90
2019-03-23T13:30:19.558Z,3.25
2019-03-23T13:32:26.223Z,3.60
2019-03-23T13:34:32.902Z,2.95
2019-03-23T13:36:39.580Z,3.15
2019-03-23T13:38:46.245Z,3.50
2019-03-23T13:40:52.925Z,4.87
2019-03-23T13:42:59.584Z,3.33
2019-03-23T13:45:10.057Z,4.28
2019-03-23T13:47:16.902Z,3.85
2019-03-23T13:49:23.528Z,3.95
2019-03-23T13:51:30.241Z,3.62
2019-03-23T13:53:37.796Z,3.10
2019-03-23T13:55:44.544Z,3.42
2019-03-23T13:57:51.205Z,4.78
2019-03-23T13:59:57.882Z,3.30
2019-03-23T14:02:04.613Z,3.17
2019-03-23T14:04:12.349Z,3.45
2019-03-23T14:06:19.029Z,3.72
2019-03-23T14:08:26.885Z,3.95
2019-03-23T14:10:33.660Z,3.80
2019-03-23T14:12:40.344Z,3.80
2019-03-23T14:14:48.084Z,3.70
2019-03-23T14:16:54.806Z,3.35
2019-03-23T14:19:01.486Z,3.40
2019-03-23T14:21:08.157Z,5.05
2019-03-23T14:23:14.815Z,4.42
2019-03-23T14:25:21.498Z,3.50
2019-03-23T14:27:28.152Z,3.33
2019-03-23T14:29:34.822Z,3.22
2019-03-23T14:31:41.504Z,3.87
2019-03-23T14:33:48.156Z,3.77
2019-03-23T14:35:54.818Z,3.10
2019-03-23T14:38:01.508Z,3.00
2019-03-23T14:40:08.764Z,3.25
2019-03-23T14:42:15.497Z,3.45
2019-03-23T14:44:22.183Z,4.00
2019-03-23T14:46:28.852Z,3.55
2019-03-23T14:48:36.698Z,3.87
2019-03-23T14:50:43.377Z,3.70
2019-03-23T14:52:50.037Z,4.37
2019-03-23T14:54:56.725Z,3.83
2019-03-23T14:57:03.423Z,4.47
2019-03-23T14:59:10.080Z,4.00
2019-03-23T15:01:16.749Z,3.95
2019-03-23T15:03:23.428Z,4.10
2019-03-23T15:05:30.186Z,5.85
2019-03-23T15:07:36.943Z,5.40
2019-03-23T15:09:43.644Z,5.20
2019-03-23T15:11:50.308Z,5.30
2019-03-23T15:13:56.973Z,4.95
2019-03-23T15:16:03.678Z,4.78
2019-03-23T15:18:10.346Z,4.78
2019-03-23T15:20:17.014Z,4.97
2019-03-23T15:22:23.722Z,5.10
2019-03-23T15:24:30.388Z,5.65
2019-03-23T15:26:37.115Z,5.35
2019-03-23T15:28:43.807Z,5.30
2019-03-23T15:30:50.910Z,5.33
2019-03-23T15:32:57.761Z,5.25
2019-03-23T15:35:06.880Z,5.42
2019-03-23T15:39:20.353Z,5.60
2019-03-23T15:41:27.046Z,6.08
2019-03-23T15:43:33.716Z,6.03
2019-03-23T15:45:40.457Z,6.70
2019-03-23T15:47:47.146Z,6.17
2019-03-23T15:49:53.822Z,10.75
2019-03-23T15:52:00.499Z,11.03
2019-03-23T15:54:07.198Z,8.93
2019-03-23T15:56:13.871Z,7.85
2019-03-23T15:58:20.539Z,7.20
2019-03-23T16:00:27.299Z,6.92
2019-03-23T16:02:33.973Z,6.20
2019-03-23T16:04:40.719Z,6.95
2019-03-23T16:06:47.426Z,6.78
2019-03-23T16:08:54.095Z,7.20
2019-03-23T16:11:00.756Z,6.80
2019-03-23T16:13:07.465Z,6.47
2019-03-23T16:15:14.932Z,6.45
2019-03-23T16:17:21.603Z,7.67
2019-03-23T16:19:28.299Z,6.87
2019-03-23T16:21:35.032Z,6.72
2019-03-23T16:23:41.729Z,6.80
2019-03-23T16:25:48.420Z,6.95
2019-03-23T16:27:55.090Z,7.53
2019-03-23T16:30:01.768Z,7.12
2019-03-23T16:32:09.451Z,7.60
2019-03-23T16:34:16.202Z,8.15
2019-03-23T16:36:22.925Z,7.17
2019-03-23T16:38:29.725Z,9.15
2019-03-23T16:40:36.409Z,7.97
2019-03-23T16:42:45.458Z,9.20
2019-03-23T16:44:51.622Z,8.08
2019-03-23T16:46:58.291Z,8.08
2019-03-23T16:49:04.968Z,8.55
2019-03-23T16:51:11.662Z,11.03
2019-03-23T16:53:18.376Z,10.32
2019-03-23T16:55:25.046Z,9.43
2019-03-23T16:57:31.743Z,10.03
2019-03-23T16:59:39.273Z,9.63
2019-03-23T17:01:46.955Z,9.03
2019-03-23T17:03:53.860Z,11.12
2019-03-23T17:06:00.525Z,9.88
2019-03-23T17:08:07.964Z,10.72
2019-03-23T17:10:15.094Z,10.48
2019-03-23T17:12:21.846Z,10.00
2019-03-23T17:14:28.605Z,11.18
2019-03-23T17:16:35.295Z,10.65
2019-03-23T17:18:42.029Z,11.18
2019-03-23T17:20:48.702Z,11.05
2019-03-23T17:22:55.424Z,10.08
2019-03-23T17:25:02.126Z,9.55
2019-03-23T17:27:09.037Z,10.58
2019-03-23T17:29:15.779Z,9.88
2019-03-23T17:31:22.481Z,10.35
2019-03-23T17:33:29.230Z,11.25
2019-03-23T17:35:36.011Z,11.18
2019-03-23T17:37:42.775Z,13.15
2019-03-23T17:39:49.618Z,12.95
2019-03-23T17:41:56.418Z,10.70
2019-03-23T17:44:04.115Z,11.63
2019-03-23T17:46:11.947Z,11.50
2019-03-23T17:48:18.745Z,9.95
2019-03-23T17:50:25.488Z,11.15
2019-03-23T17:52:32.168Z,10.15
2019-03-23T17:54:39.006Z,10.00
2019-03-23T17:56:45.823Z,10.38
2019-03-23T17:58:52.555Z,12.13
2019-03-23T18:00:59.669Z,10.55
2019-03-23T18:03:07.649Z,10.63
2019-03-23T18:05:16.174Z,11.88
2019-03-23T18:07:23.008Z,11.12
2019-03-23T18:09:29.749Z,11.80
2019-03-23T18:11:36.510Z,12.65
2019-03-23T18:13:43.365Z,12.35
2019-03-23T18:15:50.130Z,13.53
2019-03-23T18:17:56.895Z,14.10
2019-03-23T18:20:05.161Z,14.40
2019-03-23T18:22:11.918Z,14.07
2019-03-23T18:24:18.760Z,14.58
2019-03-23T18:26:25.483Z,15.03
2019-03-23T18:28:32.224Z,14.33
2019-03-23T18:30:41.920Z,16.52
2019-03-23T18:32:48.759Z,17.92
2019-03-23T18:34:55.424Z,18.85
2019-03-23T18:37:02.128Z,19.23
2019-03-23T18:39:08.959Z,18.15
2019-03-23T18:41:15.835Z,18.00
2019-03-23T18:43:27.314Z,17.35
2019-03-23T18:45:31.105Z,16.62
2019-03-23T18:47:37.834Z,16.62
2019-03-23T18:49:44.646Z,16.27
2019-03-23T18:51:51.430Z,16.45
2019-03-23T18:53:58.107Z,16.10
2019-03-23T18:56:04.933Z,16.37
2019-03-23T18:58:12.605Z,16.75
2019-03-23T19:00:41.308Z,16.75
2019-03-23T19:02:47.975Z,16.67
2019-03-23T19:04:54.879Z,17.75
2019-03-23T19:07:01.547Z,17.92
2019-03-23T19:09:08.811Z,18.07
2019-03-23T19:11:15.733Z,17.45
2019-03-23T19:13:22.403Z,18.92
2019-03-23T19:15:29.110Z,19.25
2019-03-23T19:17:35.810Z,20.15
2019-03-23T19:19:42.617Z,18.75
2019-03-23T19:21:49.291Z,20.08
2019-03-23T19:23:56.161Z,18.82
2019-03-23T19:26:02.823Z,16.75
2019-03-23T19:28:09.504Z,16.52
2019-03-23T19:30:17.713Z,16.07
2019-03-23T19:32:24.454Z,16.33
2019-03-23T19:34:31.122Z,18.73
2019-03-23T19:36:37.812Z,17.35
2019-03-23T19:38:44.509Z,15.72
2019-03-23T19:40:51.197Z,15.95
2019-03-23T19:42:59.636Z,20.05
2019-03-23T19:45:08.111Z,20.90
2019-03-23T19:47:14.851Z,17.17
2019-03-23T19:49:21.564Z,15.03
2019-03-23T19:51:28.301Z,15.35
2019-03-23T19:53:35.041Z,14.98
2019-03-23T19:55:42.835Z,15.48
2019-03-23T19:57:54.467Z,14.38
2019-03-23T19:59:59.072Z,15.15
2019-03-23T20:02:05.896Z,17.77
2019-03-23T20:04:12.718Z,13.98
2019-03-23T20:06:19.551Z,15.48
2019-03-23T20:08:26.246Z,16.12
2019-03-23T20:10:34.315Z,17.87
2019-03-23T20:12:42.438Z,18.75
2019-03-23T20:14:50.303Z,17.52
2019-03-23T20:16:57.047Z,18.92
2019-03-23T20:19:03.743Z,19.27
2019-03-23T20:21:10.435Z,18.65
2019-03-23T20:23:18.115Z,18.10
2019-03-23T20:25:24.774Z,16.75
2019-03-23T20:27:31.599Z,17.55
2019-03-23T20:29:38.386Z,17.10
2019-03-23T20:31:46.228Z,16.42
2019-03-23T20:33:52.926Z,16.62
2019-03-23T20:35:59.673Z,17.25
2019-03-23T20:38:07.800Z,17.05
2019-03-23T20:40:15.408Z,17.97
2019-03-23T20:42:22.212Z,17.30
2019-03-23T20:44:28.952Z,16.95
2019-03-23T20:46:35.644Z,17.35
2019-03-23T20:48:43.238Z,17.02
2019-03-23T20:50:50.486Z,17.17
2019-03-23T20:52:58.723Z,16.82
2019-03-23T20:55:08.923Z,17.17
2019-03-23T20:57:23.407Z,16.73
2019-03-23T20:59:26.725Z,16.30
2019-03-23T21:01:33.530Z,17.32
2019-03-23T21:03:40.321Z,16.25
2019-03-23T21:05:47.064Z,17.52
2019-03-23T21:07:53.851Z,17.10
2019-03-23T21:10:02.800Z,18.75
2019-03-23T21:12:10.753Z,18.98
2019-03-23T21:14:20.353Z,17.15
2019-03-23T21:16:25.865Z,17.92
2019-03-23T21:18:32.731Z,19.57
2019-03-23T21:20:39.456Z,18.12
2019-03-23T21:22:46.204Z,17.60
2019-03-23T21:24:53.193Z,17.30
2019-03-23T21:26:59.876Z,17.75
2019-03-23T21:29:06.723Z,18.62
2019-03-23T21:31:13.552Z,17.37
2019-03-23T21:33:20.305Z,17.23
2019-03-23T21:35:27.095Z,16.52
2019-03-23T21:37:35.368Z,17.45
2019-03-23T21:39:42.125Z,18.15
2019-03-23T21:41:50.010Z,17.30
2019-03-23T21:43:56.798Z,17.07
2019-03-23T21:46:03.528Z,16.30
2019-03-23T21:48:10.200Z,17.30
2019-03-23T21:50:16.972Z,16.87
2019-03-23T21:52:23.729Z,18.15
2019-03-23T21:54:31.982Z,21.15
2019-03-23T21:56:38.746Z,21.73
2019-03-23T21:58:45.424Z,21.45
2019-03-23T22:00:52.169Z,21.02
2019-03-23T22:02:58.929Z,21.62
2019-03-23T22:05:07.201Z,21.77
2019-03-23T22:07:14.816Z,21.70
2019-03-23T22:09:22.362Z,23.15
2019-03-23T22:11:29.402Z,23.87
2019-03-23T22:13:37.909Z,24.27
2019-03-23T22:15:46.820Z,23.60
2019-03-23T22:19:59.567Z,24.15
2019-03-23T22:22:06.488Z,27.87
2019-03-23T22:24:15.027Z,27.98
2019-03-23T22:26:22.044Z,27.22
2019-03-23T22:28:28.968Z,27.32
2019-03-23T22:30:35.662Z,27.70
2019-03-23T22:32:42.876Z,27.58
2019-03-23T22:34:50.152Z,26.60
2019-03-23T22:36:56.861Z,27.20
2019-03-23T22:39:06.909Z,25.45
2019-03-23T22:41:13.579Z,25.12
2019-03-23T22:43:20.422Z,25.72
2019-03-23T22:45:27.352Z,28.98
2019-03-23T22:47:34.225Z,27.35
2019-03-23T22:49:41.072Z,29.15
2019-03-23T22:51:47.860Z,28.45
2019-03-23T22:53:55.498Z,30.60
2019-03-23T22:56:02.536Z,31.65
2019-03-23T22:58:09.289Z,34.13
2019-03-23T23:00:21.419Z,32.90
2019-03-23T23:02:29.711Z,36.53
2019-03-23T23:04:46.557Z,33.92
2019-03-23T23:07:05.759Z,33.67
2019-03-23T23:09:20.725Z,35.08
2019-03-23T23:11:31.185Z,33.40
2019-03-23T23:13:39.005Z,32.93
2019-03-23T23:15:45.983Z,33.98
2019-03-23T23:17:52.653Z,31.02
2019-03-23T23:19:59.362Z,31.70
2019-03-23T23:22:06.063Z,32.30
2019-03-23T23:24:12.782Z,29.23
2019-03-23T23:26:19.476Z,33.23
2019-03-23T23:28:32.127Z,26.87
2019-03-23T23:30:38.981Z,25.97
2019-03-23T23:32:45.735Z,23.50
2019-03-23T23:34:52.472Z,23.95
2019-03-23T23:37:00.463Z,21.10
2019-03-23T23:39:08.953Z,19.02
2019-03-23T23:41:15.624Z,18.92
2019-03-23T23:43:22.428Z,18.50
2019-03-23T23:45:29.201Z,16.62
2019-03-23T23:47:35.940Z,17.15
2019-03-23T23:49:42.693Z,17.55
2019-03-23T23:51:50.289Z,18.00
2019-03-23T23:53:57.191Z,16.93
2019-03-23T23:56:03.978Z,16.77
2019-03-23T23:58:11.856Z,14.53
